Padborg, Denmark
Current Conditions -  °F | °C
As of 8:20 PM on Wednesday 17 Dec 2014 (Local Time) from ETGG Reporting Station
Drizzle Drizzle  
Wind Chill: 36°   Ceiling: 400
Heat Index: 39°   Visibility: 3mi
Dew Point: 37°   Wind: 5mph
Humidity: 93%   Direction: 200°SSW
Pressure: 29.53"   Gusts: NA
Location:  54.83°N, 9.36°E
Report Text: ETGG 171920Z 20004KT 5000 -DZ BR OVC004 04/03 Q1000 YLO
Loading
Personal Weather Stations






























Interactive Weather Map New forecast layout! Learn more

10-Day Weather Forecast

Advertisements
Track Severe Weather on mobile